Farwell, Texas
Current Conditions -  °F | °C
As of 6:15 PM on Thursday 27 Nov 2014 (Local Time) from KCVN Reporting Station
Clear Clear  
Wind Chill: 50°   Ceiling: Unl
Heat Index: 50°   Visibility: 10mi
Dew Point: 25°   Wind: 8mph
Humidity: 37%   Direction: 200°SSW
Pressure: 30.25"   Gusts: NA
Location:  34.38°N, 103.04°W
Report Text: KCVN 280015Z 20007KT 10SM CLR 10/M04 A3025 RMK AO1
Loading
Personal Weather Stations






























Interactive Weather Map New forecast layout! Learn more

10-Day Weather Forecast

Advertisements
Track Severe Weather on mobile